首页
METAR-TAF:

METAR-TAF

机场 :

Naval Air Station Whiting Field North

米尔顿, 佛罗里达州, 美国

纬度: 30-44-00N, 经度: 087-01-00W, 海拔: 60米

当前天气观测

该预报发布于2小时和6分钟前的08:56 UTC
风速4节,风向东转东北
温度 24°C
湿度 74%
气压 1016 hPa
能見度: 16.1公里
多云层高于4700英尺

METAR: KNSE 190856Z AUTO 06004KT 10SM BKN047 24/19 A3000 RMK AO2 SLP142 T02390194 56002 $

时间: 06:02 (11:02 UTC)

预报

预报有效从18日的 23点(UTC)到 19日的 23点(UTC)
风速6节,风向东南
能见度10公里或以上
散云层高于6000英尺
多云层高于8000英尺
多云层高于25000英尺
从 19日的 0500点(UTC)
风速10节,风向,有时为15节阵风
能见度10公里或以上
散云层高于7000英尺
多云层高于25000英尺
从 19日的 1100点(UTC)
风速12节,风向,有时为20节阵风
能见度10公里或以上
散云层高于3000英尺
散云层高于6000英尺
多云层高于25000英尺
从 19日的 1400点(UTC)
风速15节,风向,有时为25节阵风
能见度10公里或以上
散云层高于2500英尺
多云层高于7000英尺
多云层高于25000英尺
从 19日的 2100点(UTC)
风速12节,风向
能見度: 2011
散云层高于6000英尺
多云层高于25000英尺

TAF: KNSE 1823/1923 13006KT 9999 SCT060 BKN080 BKN250 QNH2996INS FM190500 10010G15KT 9999 SCT070 BKN250 QNH3002INS FM191100 08012G20KT 9999 SCT030 SCT060 BKN250 QNH3005INS FM191400 09015G25KT 9999 SCT025 BKN070 BKN250 QNH3006INS FM192100 10012KT 9999 SCT060 BKN250 QNH3003INS LAST NO AMDS AFT 1904 NEXT 2007 AUTOMATED SENSOR METWATCH 1904 TIL 2011 TX31/1919Z TN22/1909Z FN20029

超过4000个机场的气象观测和天气预报(METAR&TAF报告)。

可查询的气象台以黄色和红色小点在地图上表示。

将鼠标移到小点上方,可查看气象台名称。

然后点击查看天气观测和预报。

如需切换地图:点击带黑十字的绿色按钮放大地图;点击带横线的绿色按钮缩小地图;或者点击绿色箭头查看邻近地区的地图。


METAR-TAF: